Time;durP1;ratioP1;P1;durP2;ratioP2;P2;SDS_P1;SDS_P2;PMS_P1;PMS_P2;Temp;Humidity;BMP_temperature;BMP_pressure;BME280_temperature;BME280_humidity;BME280_pressure;Samples;Min_cycle;Max_cycle;Signal;HPM_P1;HPM_P2
2023/04/17 00:00:19;;;;;;;30.38;15.90;;;;;;;;;;5052528;28;20056;-80
2023/04/17 00:02:45;;;;;;;31.30;14.98;;;;;;;;;;5050580;28;20047;-79
2023/04/17 00:05:12;;;;;;;33.25;17.20;;;;;;;;;;5036094;28;20483;-80
2023/04/17 00:07:38;;;;;;;26.17;14.30;;;;;;;;;;5052837;28;20393;-79
2023/04/17 00:10:08;;;;;;;33.22;15.23;;;;;;;;;;5053571;28;20049;-79
2023/04/17 00:12:34;;;;;;;30.55;16.02;;;;;;;;;;5039128;28;20052;-79
2023/04/17 00:15:01;;;;;;;30.92;16.20;;;;;;;;;;5052269;28;20044;-80
2023/04/17 00:17:27;;;;;;;31.55;16.75;;;;;;;;;;5052335;28;20065;-79
2023/04/17 00:19:53;;;;;;;31.38;16.63;;;;;;;;;;5052627;28;20429;-80
2023/04/17 00:22:19;;;;;;;33.88;16.88;;;;;;;;;;5052307;28;20048;-79
2023/04/17 00:24:45;;;;;;;30.95;16.80;;;;;;;;;;5052515;28;20397;-79
2023/04/17 00:27:11;;;;;;;36.05;17.95;;;;;;;;;;5035236;28;20083;-79
2023/04/17 00:29:37;;;;;;;34.33;16.23;;;;;;;;;;5052315;28;20049;-80
2023/04/17 00:32:04;;;;;;;37.75;18.48;;;;;;;;;;5053177;28;20076;-80
2023/04/17 00:34:30;;;;;;;38.03;17.10;;;;;;;;;;5053293;28;20040;-79
2023/04/17 00:36:56;;;;;;;35.15;16.85;;;;;;;;;;5053391;28;20033;-79
2023/04/17 00:39:22;;;;;;;39.03;18.63;;;;;;;;;;5051599;28;20049;-78
2023/04/17 00:41:48;;;;;;;39.60;18.77;;;;;;;;;;5035413;28;20055;-79
2023/04/17 00:44:14;;;;;;;32.92;17.10;;;;;;;;;;5052928;28;20497;-80
2023/04/17 00:46:40;;;;;;;37.08;16.92;;;;;;;;;;5053088;28;20045;-79
2023/04/17 00:49:07;;;;;;;39.78;18.45;;;;;;;;;;5052767;28;20037;-79
2023/04/17 00:51:34;;;;;;;41.63;18.80;;;;;;;;;;5051772;28;20095;-79
2023/04/17 00:54:00;;;;;;;47.50;19.60;;;;;;;;;;5053026;28;20049;-79
2023/04/17 00:56:26;;;;;;;33.22;17.92;;;;;;;;;;5051712;28;20494;-79
2023/04/17 00:58:53;;;;;;;38.33;18.80;;;;;;;;;;5052884;28;20108;-79
2023/04/17 01:01:21;;;;;;;39.22;18.80;;;;;;;;;;5030644;28;20600;-79
2023/04/17 01:03:47;;;;;;;39.63;18.65;;;;;;;;;;5053078;28;20431;-80
2023/04/17 01:06:13;;;;;;;39.00;18.80;;;;;;;;;;5033527;28;20069;-79
2023/04/17 01:08:41;;;;;;;46.03;20.15;;;;;;;;;;5052884;28;20508;-80
2023/04/17 01:11:07;;;;;;;41.58;18.60;;;;;;;;;;5052228;28;20045;-79
2023/04/17 01:13:33;;;;;;;38.75;19.13;;;;;;;;;;5052837;28;20041;-79
2023/04/17 01:15:59;;;;;;;40.10;18.35;;;;;;;;;;5052368;28;20059;-79
2023/04/17 01:18:25;;;;;;;38.13;19.05;;;;;;;;;;5050917;28;20053;-79
2023/04/17 01:20:51;;;;;;;37.15;18.55;;;;;;;;;;5052683;28;20048;-79
2023/04/17 01:23:17;;;;;;;40.35;19.80;;;;;;;;;;5050836;28;20045;-80
2023/04/17 01:25:45;;;;;;;39.53;18.48;;;;;;;;;;5051046;28;20098;-80
2023/04/17 01:28:11;;;;;;;38.35;20.00;;;;;;;;;;5050890;28;20110;-79
2023/04/17 01:30:37;;;;;;;42.38;20.23;;;;;;;;;;5051270;28;20121;-80
2023/04/17 01:33:03;;;;;;;37.78;19.02;;;;;;;;;;5051157;28;20049;-80
2023/04/17 01:35:29;;;;;;;35.28;19.05;;;;;;;;;;5050904;28;20723;-80
2023/04/17 01:37:55;;;;;;;46.40;20.88;;;;;;;;;;5052412;28;20044;-80
2023/04/17 01:40:21;;;;;;;42.05;20.27;;;;;;;;;;5050710;28;20402;-80
2023/04/17 01:42:47;;;;;;;38.97;19.85;;;;;;;;;;5052430;28;20041;-80
2023/04/17 01:45:14;;;;;;;52.38;21.15;;;;;;;;;;5050742;28;20070;-80
2023/04/17 01:47:40;;;;;;;49.13;20.80;;;;;;;;;;5051065;28;20041;-80
2023/04/17 01:50:07;;;;;;;42.47;19.73;;;;;;;;;;5052284;28;20048;-80
2023/04/17 01:52:35;;;;;;;53.88;21.80;;;;;;;;;;5051560;28;20182;-80
2023/04/17 01:55:01;;;;;;;46.90;21.00;;;;;;;;;;5052190;28;20429;-80
2023/04/17 01:57:27;;;;;;;40.97;19.45;;;;;;;;;;5050609;28;20520;-80
2023/04/17 01:59:53;;;;;;;46.22;21.75;;;;;;;;;;5051079;28;20052;-80
2023/04/17 02:02:19;;;;;;;50.80;21.15;;;;;;;;;;5048875;28;20060;-80
2023/04/17 02:04:45;;;;;;;51.47;21.58;;;;;;;;;;5049744;28;20037;-80
2023/04/17 02:07:11;;;;;;;44.75;20.80;;;;;;;;;;5051157;28;20037;-79
2023/04/17 02:09:37;;;;;;;54.40;23.27;;;;;;;;;;5050065;28;20103;-80
2023/04/17 02:12:04;;;;;;;49.60;22.58;;;;;;;;;;5050876;28;20049;-80
2023/04/17 02:14:30;;;;;;;53.47;23.27;;;;;;;;;;5051119;28;20052;-80
2023/04/17 02:16:57;;;;;;;51.53;22.73;;;;;;;;;;5054626;28;20045;-79
2023/04/17 02:19:23;;;;;;;49.00;22.02;;;;;;;;;;5054197;28;20037;-80
2023/04/17 02:21:49;;;;;;;52.67;22.52;;;;;;;;;;5055848;28;20029;-80
2023/04/17 02:24:15;;;;;;;51.22;22.25;;;;;;;;;;5054390;28;20068;-80
2023/04/17 02:26:41;;;;;;;55.25;23.85;;;;;;;;;;5054002;28;20503;-80
2023/04/17 02:29:07;;;;;;;49.63;23.20;;;;;;;;;;5045996;28;20040;-79
2023/04/17 02:31:33;;;;;;;47.35;22.27;;;;;;;;;;5042648;28;20179;-80
2023/04/17 02:33:59;;;;;;;51.97;23.58;;;;;;;;;;5055663;28;20037;-80
2023/04/17 02:36:26;;;;;;;52.38;22.27;;;;;;;;;;5054219;28;20055;-80
2023/04/17 02:38:52;;;;;;;53.10;23.92;;;;;;;;;;5055525;28;20045;-79
2023/04/17 02:41:18;;;;;;;51.95;22.33;;;;;;;;;;5065570;28;20033;-80
2023/04/17 02:43:45;;;;;;;58.72;23.90;;;;;;;;;;5058307;28;20064;-80
2023/04/17 02:46:11;;;;;;;52.85;22.67;;;;;;;;;;5055680;28;20040;-80
2023/04/17 02:48:37;;;;;;;48.55;22.90;;;;;;;;;;5053460;28;20045;-79
2023/04/17 02:51:03;;;;;;;41.10;20.60;;;;;;;;;;5054187;28;20474;-79
2023/04/17 02:53:29;;;;;;;43.63;20.67;;;;;;;;;;5069321;28;20049;-80
2023/04/17 02:55:55;;;;;;;43.22;21.20;;;;;;;;;;5075251;28;20047;-80
2023/04/17 02:58:21;;;;;;;48.33;21.73;;;;;;;;;;5074663;28;20040;-80
2023/04/17 03:00:47;;;;;;;46.60;21.42;;;;;;;;;;5065735;28;20123;-79
2023/04/17 03:03:13;;;;;;;44.00;21.85;;;;;;;;;;5069212;28;20044;-79
2023/04/17 03:05:40;;;;;;;46.20;21.83;;;;;;;;;;5075000;28;20397;-80
2023/04/17 03:08:06;;;;;;;50.30;23.27;;;;;;;;;;5057640;28;20056;-79
2023/04/17 03:10:32;;;;;;;47.22;22.00;;;;;;;;;;5060334;28;20045;-80
2023/04/17 03:12:58;;;;;;;46.45;21.63;;;;;;;;;;5073820;28;20075;-80
2023/04/17 03:15:24;;;;;;;41.50;20.67;;;;;;;;;;5103861;28;20049;-80
2023/04/17 03:17:50;;;;;;;59.83;22.08;;;;;;;;;;5064261;28;20063;-80
2023/04/17 03:20:16;;;;;;;42.00;21.10;;;;;;;;;;5074782;28;20071;-80
2023/04/17 03:22:42;;;;;;;51.85;22.95;;;;;;;;;;5074650;28;20036;-80
2023/04/17 03:25:09;;;;;;;44.78;20.92;;;;;;;;;;5073294;28;20040;-80
2023/04/17 03:27:35;;;;;;;40.85;19.90;;;;;;;;;;5059978;28;20043;-79
2023/04/17 03:30:01;;;;;;;41.95;20.58;;;;;;;;;;5107325;28;20188;-80
2023/04/17 03:32:27;;;;;;;42.72;20.88;;;;;;;;;;5060194;28;20036;-80
2023/04/17 03:34:53;;;;;;;40.30;19.50;;;;;;;;;;5073382;28;20040;-80
2023/04/17 03:37:19;;;;;;;41.53;21.00;;;;;;;;;;5074529;28;20036;-79
2023/04/17 03:39:45;;;;;;;46.25;21.40;;;;;;;;;;5074160;28;20051;-80
2023/04/17 03:42:13;;;;;;;45.45;21.48;;;;;;;;;;5056965;28;20545;-79
2023/04/17 03:44:39;;;;;;;43.08;19.55;;;;;;;;;;5057024;28;20044;-80
2023/04/17 03:47:05;;;;;;;42.67;20.75;;;;;;;;;;5073277;28;20370;-80
2023/04/17 03:49:32;;;;;;;45.15;20.83;;;;;;;;;;5072736;28;20127;-80
2023/04/17 03:51:58;;;;;;;41.53;21.50;;;;;;;;;;5074647;28;20040;-80
2023/04/17 03:54:24;;;;;;;41.70;20.95;;;;;;;;;;5073051;28;20048;-80
2023/04/17 03:56:50;;;;;;;46.42;21.05;;;;;;;;;;5056579;28;20485;-80
2023/04/17 03:59:16;;;;;;;46.03;21.95;;;;;;;;;;5060441;28;20032;-80
2023/04/17 04:01:43;;;;;;;43.95;21.42;;;;;;;;;;5056373;28;20036;-80
2023/04/17 04:04:09;;;;;;;41.70;19.95;;;;;;;;;;5053717;28;20045;-80
2023/04/17 04:06:36;;;;;;;45.58;21.23;;;;;;;;;;5054110;28;20036;-80
2023/04/17 04:09:02;;;;;;;45.15;21.40;;;;;;;;;;5052797;28;20440;-79
2023/04/17 04:11:28;;;;;;;42.17;21.05;;;;;;;;;;5052047;28;20150;-80
2023/04/17 04:13:54;;;;;;;46.28;21.38;;;;;;;;;;5053956;28;20060;-79
2023/04/17 04:16:20;;;;;;;42.42;20.92;;;;;;;;;;5067432;28;20142;-79
2023/04/17 04:18:47;;;;;;;45.28;21.70;;;;;;;;;;5053322;28;20077;-80
2023/04/17 04:21:13;;;;;;;50.75;24.00;;;;;;;;;;5052306;28;20049;-80
2023/04/17 04:23:40;;;;;;;45.05;21.67;;;;;;;;;;5051825;28;20065;-80
2023/04/17 04:26:06;;;;;;;46.50;21.63;;;;;;;;;;5052295;28;20112;-80
2023/04/17 04:28:32;;;;;;;52.75;22.27;;;;;;;;;;5067201;28;20341;-80
2023/04/17 04:31:01;;;;;;;46.35;22.35;;;;;;;;;;5052341;28;20533;-80
2023/04/17 04:33:28;;;;;;;42.58;20.77;;;;;;;;;;5052421;28;20519;-80
2023/04/17 04:35:59;;;;;;;51.67;22.63;;;;;;;;;;5051752;28;20124;-79
2023/04/17 04:38:29;;;;;;;47.58;22.33;;;;;;;;;;5052276;28;20083;-80
2023/04/17 04:41:00;;;;;;;53.17;22.73;;;;;;;;;;5052295;28;20076;-80
2023/04/17 04:43:29;;;;;;;53.83;22.02;;;;;;;;;;5085638;28;20067;-80
2023/04/17 04:45:55;;;;;;;50.30;21.75;;;;;;;;;;5050732;28;20033;-79
2023/04/17 04:48:21;;;;;;;58.80;24.50;;;;;;;;;;5053365;28;20041;-79
2023/04/17 04:50:48;;;;;;;49.92;23.10;;;;;;;;;;5052503;28;20112;-80
2023/04/17 04:53:14;;;;;;;51.60;21.50;;;;;;;;;;5051947;28;20045;-79
2023/04/17 04:55:40;;;;;;;58.55;23.63;;;;;;;;;;5052746;28;20076;-80
2023/04/17 04:58:06;;;;;;;64.05;24.17;;;;;;;;;;5052980;28;20492;-80
2023/04/17 05:00:32;;;;;;;61.15;22.92;;;;;;;;;;5051489;28;20406;-79
2023/04/17 05:02:58;;;;;;;58.00;24.13;;;;;;;;;;5067193;28;20163;-79
2023/04/17 05:05:24;;;;;;;49.10;23.48;;;;;;;;;;5073098;28;20056;-80
2023/04/17 05:07:53;;;;;;;61.97;24.33;;;;;;;;;;5072916;28;20133;-79
2023/04/17 05:10:19;;;;;;;56.83;23.85;;;;;;;;;;5051756;28;20044;-79
2023/04/17 05:12:46;;;;;;;65.15;25.88;;;;;;;;;;5063484;28;20471;-80
2023/04/17 05:15:12;;;;;;;50.97;23.58;;;;;;;;;;5071248;28;20044;-79
2023/04/17 05:17:38;;;;;;;56.65;22.88;;;;;;;;;;5072074;28;20056;-80
2023/04/17 05:20:14;;;;;;;62.75;27.10;;;;;;;;;;5070957;28;20060;-80
2023/04/17 05:22:40;;;;;;;59.58;23.92;;;;;;;;;;5071440;28;20497;-80
2023/04/17 05:25:06;;;;;;;63.92;25.02;;;;;;;;;;5054396;28;20103;-80
2023/04/17 05:27:32;;;;;;;77.28;26.92;;;;;;;;;;5071687;28;20517;-79
2023/04/17 05:29:58;;;;;;;63.13;23.60;;;;;;;;;;5070903;28;20052;-79
2023/04/17 05:32:24;;;;;;;53.45;23.50;;;;;;;;;;5072453;28;20080;-80
2023/04/17 05:34:51;;;;;;;49.13;22.80;;;;;;;;;;5054128;28;20083;-80
2023/04/17 05:37:17;;;;;;;62.03;23.73;;;;;;;;;;5071259;28;20094;-79
2023/04/17 05:39:43;;;;;;;52.45;23.10;;;;;;;;;;5071993;28;20075;-80
2023/04/17 05:42:09;;;;;;;54.88;24.00;;;;;;;;;;5052418;28;20066;-80
2023/04/17 05:44:35;;;;;;;47.05;22.83;;;;;;;;;;5060483;28;20044;-79
2023/04/17 05:47:02;;;;;;;56.83;23.90;;;;;;;;;;5053581;28;20063;-80
2023/04/17 05:49:28;;;;;;;65.38;23.60;;;;;;;;;;5054338;28;20044;-80
2023/04/17 05:51:55;;;;;;;56.20;23.00;;;;;;;;;;5071871;28;20501;-80
2023/04/17 05:54:21;;;;;;;60.30;23.48;;;;;;;;;;5070904;28;20047;-80
2023/04/17 05:56:50;;;;;;;55.83;22.67;;;;;;;;;;5071877;28;20089;-80
2023/04/17 05:59:16;;;;;;;59.00;23.42;;;;;;;;;;5072018;28;20090;-80
2023/04/17 06:01:42;;;;;;;45.80;21.00;;;;;;;;;;5057305;28;20036;-80
2023/04/17 06:04:08;;;;;;;45.38;21.55;;;;;;;;;;5054263;28;20167;-80
2023/04/17 06:06:34;;;;;;;48.38;22.20;;;;;;;;;;5070963;28;20036;-80
2023/04/17 06:09:01;;;;;;;43.33;21.50;;;;;;;;;;5071945;28;20471;-80
2023/04/17 06:11:27;;;;;;;42.90;20.58;;;;;;;;;;5054292;28;20044;-80
2023/04/17 06:13:53;;;;;;;47.35;20.85;;;;;;;;;;5070464;28;20131;-80
2023/04/17 06:16:19;;;;;;;45.90;19.95;;;;;;;;;;5070590;28;20460;-79
2023/04/17 06:18:45;;;;;;;46.78;21.13;;;;;;;;;;5071603;28;20075;-80
2023/04/17 06:21:11;;;;;;;42.67;20.30;;;;;;;;;;5071818;28;20041;-80
2023/04/17 06:23:37;;;;;;;40.13;20.33;;;;;;;;;;5071922;28;20115;-80
2023/04/17 06:26:03;;;;;;;36.80;19.67;;;;;;;;;;5070227;28;20101;-80
2023/04/17 06:28:29;;;;;;;39.25;19.95;;;;;;;;;;5070500;28;20036;-80
2023/04/17 06:30:55;;;;;;;37.28;18.42;;;;;;;;;;5070056;28;20037;-80
2023/04/17 06:33:21;;;;;;;36.30;18.75;;;;;;;;;;5054024;28;20075;-80
2023/04/17 06:35:47;;;;;;;38.08;19.08;;;;;;;;;;5071555;28;20059;-80
2023/04/17 06:38:13;;;;;;;33.15;18.00;;;;;;;;;;5070820;28;20089;-80
2023/04/17 06:40:40;;;;;;;38.78;19.15;;;;;;;;;;5070381;28;20040;-80
2023/04/17 06:43:06;;;;;;;34.95;17.98;;;;;;;;;;5070280;28;20040;-80
2023/04/17 06:45:33;;;;;;;39.40;19.55;;;;;;;;;;5070500;28;20041;-80
2023/04/17 06:47:59;;;;;;;33.88;17.77;;;;;;;;;;5071205;28;20033;-80
2023/04/17 06:50:25;;;;;;;31.98;17.60;;;;;;;;;;5070537;28;20045;-80
2023/04/17 06:52:51;;;;;;;35.13;18.73;;;;;;;;;;5043826;28;20036;-80
2023/04/17 06:55:17;;;;;;;29.58;17.38;;;;;;;;;;5071836;28;20072;-80
2023/04/17 06:57:44;;;;;;;30.35;16.90;;;;;;;;;;5070284;28;20037;-80
2023/04/17 07:00:10;;;;;;;30.48;16.83;;;;;;;;;;5065250;28;20045;-80
2023/04/17 07:02:36;;;;;;;32.45;18.02;;;;;;;;;;5066299;28;20110;-80
2023/04/17 07:05:05;;;;;;;30.48;16.33;;;;;;;;;;5074935;28;20109;-80
2023/04/17 07:07:33;;;;;;;29.08;16.90;;;;;;;;;;5074360;28;20078;-80
2023/04/17 07:09:59;;;;;;;31.35;17.40;;;;;;;;;;5074664;28;20047;-80
2023/04/17 07:12:26;;;;;;;32.35;17.15;;;;;;;;;;5074134;28;20481;-80
2023/04/17 07:14:52;;;;;;;31.38;17.23;;;;;;;;;;5056838;28;20055;-80
2023/04/17 07:17:18;;;;;;;28.67;17.35;;;;;;;;;;5073323;28;20056;-80
2023/04/17 07:19:44;;;;;;;31.45;18.15;;;;;;;;;;5075026;28;20036;-80
2023/04/17 07:22:10;;;;;;;28.02;16.63;;;;;;;;;;5074605;28;20041;-80
2023/04/17 07:24:36;;;;;;;30.67;17.75;;;;;;;;;;5073813;28;20044;-80
2023/04/17 07:27:03;;;;;;;34.10;17.92;;;;;;;;;;5074388;28;20037;-80
2023/04/17 07:29:29;;;;;;;27.73;16.83;;;;;;;;;;5056962;28;20119;-80
2023/04/17 07:31:55;;;;;;;30.85;17.83;;;;;;;;;;5073301;28;20508;-80
2023/04/17 07:34:24;;;;;;;33.17;18.67;;;;;;;;;;5073621;28;20036;-80
2023/04/17 07:36:50;;;;;;;30.63;17.70;;;;;;;;;;5073645;28;20048;-80
2023/04/17 07:39:17;;;;;;;32.30;18.27;;;;;;;;;;5073604;28;20040;-80
2023/04/17 07:41:43;;;;;;;33.38;18.98;;;;;;;;;;5056740;28;20110;-80
2023/04/17 07:44:09;;;;;;;35.28;18.92;;;;;;;;;;5074061;28;20036;-80
2023/04/17 07:46:35;;;;;;;34.40;19.05;;;;;;;;;;5073289;28;20094;-80
2023/04/17 07:49:01;;;;;;;33.70;18.50;;;;;;;;;;5072549;28;20068;-80
2023/04/17 07:51:27;;;;;;;32.95;18.13;;;;;;;;;;5107156;28;20076;-80
2023/04/17 07:53:53;;;;;;;32.78;18.45;;;;;;;;;;5072712;28;20113;-80
2023/04/17 07:56:19;;;;;;;31.73;17.65;;;;;;;;;;5073276;28;20115;-80
2023/04/17 07:58:45;;;;;;;31.40;17.73;;;;;;;;;;5073163;28;20052;-80
2023/04/17 08:01:12;;;;;;;32.40;18.88;;;;;;;;;;5091809;28;20055;-80
2023/04/17 08:03:40;;;;;;;34.40;19.30;;;;;;;;;;5073142;28;20040;-80
2023/04/17 08:06:06;;;;;;;32.60;19.45;;;;;;;;;;5073975;28;20446;-80
2023/04/17 08:08:32;;;;;;;34.97;19.35;;;;;;;;;;5069011;28;20044;-80
2023/04/17 08:10:58;;;;;;;34.58;19.50;;;;;;;;;;5063938;28;20539;-80
2023/04/17 08:13:24;;;;;;;31.13;18.23;;;;;;;;;;5071592;28;20128;-80
2023/04/17 08:15:51;;;;;;;29.92;17.85;;;;;;;;;;5065098;28;20044;-80
2023/04/17 08:18:17;;;;;;;32.42;17.80;;;;;;;;;;5066207;28;20412;-80
2023/04/17 08:20:43;;;;;;;29.83;17.38;;;;;;;;;;5052961;28;20049;-80
2023/04/17 08:23:09;;;;;;;31.80;18.73;;;;;;;;;;5053733;28;20120;-80
2023/04/17 08:25:35;;;;;;;31.67;18.35;;;;;;;;;;5055829;28;20036;-80
2023/04/17 08:28:01;;;;;;;35.05;19.88;;;;;;;;;;5073485;28;20068;-80
2023/04/17 08:30:28;;;;;;;31.60;18.60;;;;;;;;;;5072470;28;20048;-80
2023/04/17 08:32:56;;;;;;;28.83;17.27;;;;;;;;;;5072733;28;20504;-80
2023/04/17 08:35:22;;;;;;;30.15;18.02;;;;;;;;;;5073508;28;20040;-80
2023/04/17 08:37:48;;;;;;;32.17;18.23;;;;;;;;;;5073925;28;20047;-80
2023/04/17 08:40:16;;;;;;;28.33;16.77;;;;;;;;;;5072963;28;20178;-81
2023/04/17 08:42:42;;;;;;;30.27;18.05;;;;;;;;;;5072590;28;20032;-81
2023/04/17 08:45:11;;;;;;;30.38;18.90;;;;;;;;;;5073569;28;20393;-81
2023/04/17 08:47:41;;;;;;;28.60;17.85;;;;;;;;;;5073446;28;20366;-81
2023/04/17 08:50:11;;;;;;;30.17;18.50;;;;;;;;;;5073268;28;20074;-81
2023/04/17 08:52:44;;;;;;;28.45;17.70;;;;;;;;;;5073909;28;20043;-81
2023/04/17 08:55:12;;;;;;;32.65;18.95;;;;;;;;;;5072346;28;20559;-81
2023/04/17 08:57:57;;;;;;;33.53;19.55;;;;;;;;;;5073323;28;20393;-81
2023/04/17 09:00:24;;;;;;;29.73;18.33;;;;;;;;;;5063191;28;20163;-81
2023/04/17 09:02:51;;;;;;;29.02;17.92;;;;;;;;;;5066260;28;20370;-81
2023/04/17 09:05:19;;;;;;;27.98;18.35;;;;;;;;;;5071512;28;20074;-81
2023/04/17 09:07:45;;;;;;;26.42;17.38;;;;;;;;;;5073080;28;20049;-82
2023/04/17 09:10:11;;;;;;;27.52;18.58;;;;;;;;;;5058603;28;20036;-81
2023/04/17 09:12:40;;;;;;;28.17;18.15;;;;;;;;;;5071745;28;20493;-81
2023/04/17 09:15:16;;;;;;;26.77;17.95;;;;;;;;;;5054617;28;20040;-81
2023/04/17 09:17:42;;;;;;;28.23;17.98;;;;;;;;;;5072638;28;20132;-82
2023/04/17 09:20:10;;;;;;;25.83;17.48;;;;;;;;;;5071425;28;20055;-82
2023/04/17 09:22:38;;;;;;;26.65;18.17;;;;;;;;;;5071746;28;20508;-82
2023/04/17 09:25:14;;;;;;;28.65;18.85;;;;;;;;;;5072341;28;20106;-82
2023/04/17 09:27:40;;;;;;;25.88;17.63;;;;;;;;;;5071958;28;20505;-82
2023/04/17 09:30:07;;;;;;;26.48;17.80;;;;;;;;;;5057136;28;20132;-83
2023/04/17 09:32:33;;;;;;;24.38;17.35;;;;;;;;;;5071424;28;20048;-82
2023/04/17 09:35:01;;;;;;;21.48;16.45;;;;;;;;;;5073030;28;20417;-82
2023/04/17 09:37:49;;;;;;;21.20;15.32;;;;;;;;;;5054730;28;20045;-82
2023/04/17 09:40:15;;;;;;;24.33;16.20;;;;;;;;;;5072738;28;20648;-82
2023/04/17 09:42:56;;;;;;;19.88;15.60;;;;;;;;;;5073136;28;20041;-82
2023/04/17 09:45:23;;;;;;;20.08;15.48;;;;;;;;;;5054585;28;20546;-82
2023/04/17 09:47:50;;;;;;;18.75;14.95;;;;;;;;;;5066232;28;20402;-82
2023/04/17 09:50:17;;;;;;;19.13;15.30;;;;;;;;;;5064938;28;20041;-83
2023/04/17 09:52:43;;;;;;;19.55;14.95;;;;;;;;;;5055345;28;20508;-83
2023/04/17 09:55:15;;;;;;;17.45;14.98;;;;;;;;;;5072654;28;20489;-83
2023/04/17 09:57:41;;;;;;;20.67;15.00;;;;;;;;;;5073207;28;20157;-83
2023/04/17 10:00:13;;;;;;;18.52;15.32;;;;;;;;;;5066538;28;20079;-83
2023/04/17 10:02:41;;;;;;;18.15;15.18;;;;;;;;;;5081579;28;20397;-83
2023/04/17 10:05:07;;;;;;;19.55;15.45;;;;;;;;;;5073991;28;20040;-83
2023/04/17 10:07:35;;;;;;;17.98;15.40;;;;;;;;;;5071738;28;20055;-83
2023/04/17 10:10:07;;;;;;;17.60;14.95;;;;;;;;;;5071182;28;20481;-83
2023/04/17 10:12:34;;;;;;;17.80;14.70;;;;;;;;;;5072572;28;20520;-83
2023/04/17 10:15:00;;;;;;;18.40;15.60;;;;;;;;;;5071503;28;20569;-84
2023/04/17 10:17:31;;;;;;;19.33;15.15;;;;;;;;;;5070896;28;20045;-83
2023/04/17 10:20:22;;;;;;;19.08;15.93;;;;;;;;;;5070663;28;20066;-84
2023/04/17 10:22:52;;;;;;;18.40;16.10;;;;;;;;;;5071034;28;20044;-84
2023/04/17 10:25:19;;;;;;;19.25;16.02;;;;;;;;;;5071666;28;20083;-83
2023/04/17 10:27:47;;;;;;;18.70;14.90;;;;;;;;;;5071316;28;20098;-83
2023/04/17 10:30:13;;;;;;;18.08;15.25;;;;;;;;;;5071632;28;20121;-83
2023/04/17 10:32:40;;;;;;;17.75;15.75;;;;;;;;;;5062949;28;20052;-83
2023/04/17 10:35:16;;;;;;;20.88;16.17;;;;;;;;;;5065227;28;20489;-83
2023/04/17 10:37:43;;;;;;;;;;;;;;;;;;5049835;28;20495;-83
2023/04/17 10:40:10;;;;;;;17.27;15.40;;;;;;;;;;5075878;28;20015;-83
2023/04/17 10:42:36;;;;;;;17.90;16.00;;;;;;;;;;5074380;28;20044;-83
2023/04/17 10:45:04;;;;;;;19.80;15.88;;;;;;;;;;5075750;28;20072;-83
2023/04/17 10:47:34;;;;;;;19.08;15.65;;;;;;;;;;5057750;28;20481;-82
2023/04/17 10:50:02;;;;;;;20.58;15.23;;;;;;;;;;5074372;28;20112;-83
2023/04/17 10:52:37;;;;;;;19.25;16.35;;;;;;;;;;5075217;28;20040;-82
2023/04/17 10:55:03;;;;;;;18.85;15.43;;;;;;;;;;5075762;28;20598;-83
2023/04/17 10:57:59;;;;;;;18.30;14.60;;;;;;;;;;5074156;28;20189;-83
2023/04/17 11:00:25;;;;;;;;;;;;;;;;;;5053335;28;20413;-83
2023/04/17 11:02:51;;;;;;;16.45;14.32;;;;;;;;;;5068514;28;19916;-83
2023/04/17 11:05:18;;;;;;;16.33;14.13;;;;;;;;;;5073908;28;20063;-83
2023/04/17 11:07:49;;;;;;;15.55;13.55;;;;;;;;;;5057301;28;20215;-83
2023/04/17 11:10:16;;;;;;;17.77;14.55;;;;;;;;;;5075324;28;20119;-83
2023/04/17 11:12:45;;;;;;;16.42;13.95;;;;;;;;;;5075104;28;20048;-82
2023/04/17 11:15:11;;;;;;;16.75;14.00;;;;;;;;;;5075138;28;20396;-82
2023/04/17 11:17:45;;;;;;;17.73;15.35;;;;;;;;;;5074428;28;20056;-82
2023/04/17 11:20:11;;;;;;;17.27;14.93;;;;;;;;;;5073531;28;20047;-83
2023/04/17 11:22:38;;;;;;;20.08;15.23;;;;;;;;;;5073606;28;20485;-82
2023/04/17 11:25:05;;;;;;;18.95;14.48;;;;;;;;;;5074839;28;20087;-82
2023/04/17 11:27:32;;;;;;;15.75;14.07;;;;;;;;;;5073313;28;20052;-82
2023/04/17 11:29:58;;;;;;;16.60;13.25;;;;;;;;;;5074977;28;20047;-83
2023/04/17 11:32:24;;;;;;;15.85;13.70;;;;;;;;;;5073259;28;20492;-82
2023/04/17 11:34:53;;;;;;;18.35;13.63;;;;;;;;;;5073750;28;20043;-82
2023/04/17 11:37:19;;;;;;;16.08;13.60;;;;;;;;;;5073186;28;20079;-82
2023/04/17 11:39:45;;;;;;;14.32;12.73;;;;;;;;;;5046529;28;20114;-82
2023/04/17 11:42:11;;;;;;;14.00;12.30;;;;;;;;;;5069639;28;20041;-82
2023/04/17 11:44:43;;;;;;;15.70;13.30;;;;;;;;;;5074555;28;20036;-82
2023/04/17 11:47:09;;;;;;;15.95;12.80;;;;;;;;;;5074545;28;20119;-82
2023/04/17 11:49:38;;;;;;;16.30;12.50;;;;;;;;;;5074341;28;20412;-82
2023/04/17 11:52:05;;;;;;;17.55;12.23;;;;;;;;;;5073244;28;20066;-82
2023/04/17 11:54:34;;;;;;;17.38;13.18;;;;;;;;;;5073884;28;20049;-82
2023/04/17 11:57:02;;;;;;;15.77;12.98;;;;;;;;;;5074749;28;20501;-82
2023/04/17 11:59:31;;;;;;;14.02;12.15;;;;;;;;;;5072587;28;20044;-82
2023/04/17 12:01:59;;;;;;;19.27;13.18;;;;;;;;;;5060650;28;20109;-83
2023/04/17 12:04:27;;;;;;;15.18;12.23;;;;;;;;;;5074354;28;20040;-82
2023/04/17 12:06:53;;;;;;;15.15;11.30;;;;;;;;;;5073138;28;20040;-82
2023/04/17 12:09:20;;;;;;;17.70;11.93;;;;;;;;;;5072994;28;20040;-81
2023/04/17 12:11:46;;;;;;;15.57;12.60;;;;;;;;;;5056372;28;20044;-82
2023/04/17 12:14:12;;;;;;;14.27;11.45;;;;;;;;;;5073544;28;20044;-82
2023/04/17 12:16:38;;;;;;;15.23;11.20;;;;;;;;;;5071799;28;20060;-82
2023/04/17 12:19:05;;;;;;;14.00;10.98;;;;;;;;;;5061090;28;20044;-83
2023/04/17 12:21:31;;;;;;;14.30;10.85;;;;;;;;;;5073366;28;20053;-82
2023/04/17 12:23:57;;;;;;;13.55;10.90;;;;;;;;;;5072514;28;20094;-82
2023/04/17 12:26:24;;;;;;;15.05;10.93;;;;;;;;;;5073907;28;20044;-82
2023/04/17 12:28:50;;;;;;;13.85;10.60;;;;;;;;;;5073694;28;20044;-82
2023/04/17 12:31:16;;;;;;;13.20;10.65;;;;;;;;;;5073684;28;20040;-82
2023/04/17 12:33:42;;;;;;;12.60;9.75;;;;;;;;;;5072084;28;20047;-83
2023/04/17 12:36:09;;;;;;;12.90;10.07;;;;;;;;;;5055892;28;20497;-82
2023/04/17 12:38:35;;;;;;;14.23;9.55;;;;;;;;;;5073189;28;20037;-82
2023/04/17 12:41:01;;;;;;;12.77;10.07;;;;;;;;;;5073370;28;20089;-81
2023/04/17 12:43:27;;;;;;;12.02;9.65;;;;;;;;;;5071806;28;20041;-82
2023/04/17 12:45:54;;;;;;;15.55;10.68;;;;;;;;;;5055521;28;20485;-82
2023/04/17 12:48:20;;;;;;;14.30;9.77;;;;;;;;;;5059051;28;20041;-82
2023/04/17 12:50:46;;;;;;;13.43;10.02;;;;;;;;;;5052894;28;20048;-83
2023/04/17 12:53:13;;;;;;;14.35;10.70;;;;;;;;;;5051881;28;20037;-82
2023/04/17 12:55:40;;;;;;;15.23;10.38;;;;;;;;;;5051341;28;20052;-82
2023/04/17 12:58:06;;;;;;;14.45;9.90;;;;;;;;;;5051173;28;20044;-82
2023/04/17 13:00:33;;;;;;;12.10;8.60;;;;;;;;;;5052641;28;20478;-81
2023/04/17 13:02:59;;;;;;;12.05;8.70;;;;;;;;;;5067146;28;20037;-82
2023/04/17 13:05:26;;;;;;;12.68;9.13;;;;;;;;;;5057965;28;20053;-82
2023/04/17 13:07:52;;;;;;;14.00;9.95;;;;;;;;;;5034900;28;20044;-82
2023/04/17 13:10:18;;;;;;;13.45;9.77;;;;;;;;;;5051411;28;20490;-82
2023/04/17 13:12:45;;;;;;;13.27;8.70;;;;;;;;;;5052531;28;20106;-82
2023/04/17 13:15:14;;;;;;;12.10;8.90;;;;;;;;;;5052631;28;20036;-82
2023/04/17 13:17:41;;;;;;;12.90;8.60;;;;;;;;;;5034268;28;20052;-82
2023/04/17 13:20:07;;;;;;;11.80;9.77;;;;;;;;;;5051125;28;20041;-82
2023/04/17 13:22:33;;;;;;;15.23;11.00;;;;;;;;;;5052403;28;20051;-82
2023/04/17 13:24:59;;;;;;;16.77;11.50;;;;;;;;;;5051606;28;20073;-82
2023/04/17 13:27:26;;;;;;;13.13;10.57;;;;;;;;;;5051238;28;20047;-82
2023/04/17 13:29:52;;;;;;;14.13;10.77;;;;;;;;;;5051236;28;20040;-82
2023/04/17 13:32:18;;;;;;;14.38;10.48;;;;;;;;;;5051166;28;20477;-82
2023/04/17 13:34:45;;;;;;;14.25;10.45;;;;;;;;;;5034788;28;20447;-82
2023/04/17 13:37:13;;;;;;;15.48;10.07;;;;;;;;;;5034648;28;20131;-82
2023/04/17 13:39:39;;;;;;;13.77;10.35;;;;;;;;;;5052149;28;20464;-82
2023/04/17 13:42:06;;;;;;;12.80;10.00;;;;;;;;;;5084400;28;20052;-82
2023/04/17 13:44:32;;;;;;;14.90;10.05;;;;;;;;;;5052348;28;20046;-82
2023/04/17 13:46:58;;;;;;;14.15;9.50;;;;;;;;;;5051876;28;20509;-82
2023/04/17 13:49:26;;;;;;;14.82;9.77;;;;;;;;;;5050934;28;20041;-82
2023/04/17 13:51:52;;;;;;;11.40;9.38;;;;;;;;;;5051953;28;20049;-82
2023/04/17 13:54:18;;;;;;;16.20;9.82;;;;;;;;;;5052289;28;20080;-82
2023/04/17 13:56:44;;;;;;;14.43;10.20;;;;;;;;;;5051674;28;20044;-81
2023/04/17 13:59:10;;;;;;;13.38;9.85;;;;;;;;;;5034531;28;20060;-82
2023/04/17 14:01:37;;;;;;;11.05;8.95;;;;;;;;;;5054792;28;20094;-82
2023/04/17 14:04:03;;;;;;;11.65;8.50;;;;;;;;;;5072033;28;20040;-82
2023/04/17 14:06:30;;;;;;;12.13;9.30;;;;;;;;;;5051683;28;20041;-82
2023/04/17 14:08:56;;;;;;;12.55;9.80;;;;;;;;;;5057977;28;20036;-82
2023/04/17 14:11:23;;;;;;;14.23;9.73;;;;;;;;;;5049712;28;20081;-82
2023/04/17 14:13:49;;;;;;;13.70;10.05;;;;;;;;;;5050207;28;20041;-82
2023/04/17 14:16:17;;;;;;;14.40;10.55;;;;;;;;;;5050395;28;20128;-81